Time;durP1;ratioP1;P1;durP2;ratioP2;P2;SDS_P1;SDS_P2;PMS_P1;PMS_P2;Temp;Humidity;BMP_temperature;BMP_pressure;BME280_temperature;BME280_humidity;BME280_pressure;Samples;Min_cycle;Max_cycle;Signal;HPM_P1;HPM_P2
2022/04/29 00:00:53;;;;;;;22.50;10.57;;;;;;;;;;5016026;28;20255;-75
2022/04/29 00:03:21;;;;;;;21.20;10.20;;;;;;;;;;5014542;28;20241;-75
2022/04/29 00:05:49;;;;;;;23.47;10.20;;;;;;;;;;5013969;28;20654;-76
2022/04/29 00:08:16;;;;;;;22.50;10.67;;;;;;;;;;5013139;28;20210;-75
2022/04/29 00:10:44;;;;;;;24.80;11.17;;;;;;;;;;5015215;28;20212;-75
2022/04/29 00:13:15;;;;;;;21.63;10.03;;;;;;;;;;5014969;28;20203;-75
2022/04/29 00:15:42;;;;;;;18.10;9.87;;;;;;;;;;5015721;28;20257;-75
2022/04/29 00:18:10;;;;;;;19.00;10.23;;;;;;;;;;5014913;28;20212;-75
2022/04/29 00:20:38;;;;;;;22.30;9.93;;;;;;;;;;5014032;28;20223;-75
2022/04/29 00:23:05;;;;;;;23.13;11.10;;;;;;;;;;5014405;28;20220;-75
2022/04/29 00:25:32;;;;;;;26.40;9.90;;;;;;;;;;5015371;28;20292;-75
2022/04/29 00:27:59;;;;;;;22.87;10.10;;;;;;;;;;5015428;28;20227;-75
2022/04/29 00:30:30;;;;;;;22.13;9.57;;;;;;;;;;5015453;28;20231;-76
2022/04/29 00:32:57;;;;;;;18.63;9.57;;;;;;;;;;5020000;28;20227;-75
2022/04/29 00:35:25;;;;;;;19.20;10.27;;;;;;;;;;5021801;28;20294;-77
2022/04/29 00:37:53;;;;;;;18.30;8.93;;;;;;;;;;5018399;28;20211;-77
2022/04/29 00:40:23;;;;;;;25.13;10.33;;;;;;;;;;5021156;28;20230;-74
2022/04/29 00:42:50;;;;;;;21.20;10.27;;;;;;;;;;5017191;28;20231;-74
2022/04/29 00:45:19;;;;;;;22.53;10.10;;;;;;;;;;5017882;28;20208;-76
2022/04/29 00:47:48;;;;;;;21.30;9.77;;;;;;;;;;5019780;28;20206;-77
2022/04/29 00:50:16;;;;;;;23.77;10.07;;;;;;;;;;5021914;28;20662;-77
2022/04/29 00:52:45;;;;;;;17.90;10.40;;;;;;;;;;5017987;28;20224;-76
2022/04/29 00:55:13;;;;;;;20.13;9.80;;;;;;;;;;5016312;28;20208;-73
2022/04/29 00:57:43;;;;;;;21.77;10.07;;;;;;;;;;5016457;28;20633;-73
2022/04/29 01:00:14;;;;;;;19.23;9.40;;;;;;;;;;5018461;28;20230;-77
2022/04/29 01:02:42;;;;;;;22.43;9.63;;;;;;;;;;5014960;28;20294;-77
2022/04/29 01:05:11;;;;;;;22.87;10.13;;;;;;;;;;5013881;28;20212;-76
2022/04/29 01:07:39;;;;;;;17.73;9.30;;;;;;;;;;5018135;28;20330;-75
2022/04/29 01:10:08;;;;;;;26.70;9.97;;;;;;;;;;5019767;28;20214;-75
2022/04/29 01:12:37;;;;;;;21.17;9.90;;;;;;;;;;5021209;28;20234;-76
2022/04/29 01:15:05;;;;;;;23.50;9.87;;;;;;;;;;5022311;28;20257;-76
2022/04/29 01:17:33;;;;;;;20.57;9.70;;;;;;;;;;5019524;28;20298;-76
2022/04/29 01:20:02;;;;;;;21.13;10.27;;;;;;;;;;5019010;28;20267;-76
2022/04/29 01:22:30;;;;;;;21.53;9.37;;;;;;;;;;5021775;22;20240;-74
2022/04/29 01:24:58;;;;;;;23.13;10.77;;;;;;;;;;4972621;28;20210;-75
2022/04/29 01:27:25;;;;;;;21.13;9.63;;;;;;;;;;4975339;28;20255;-74
2022/04/29 01:29:57;;;;;;;20.03;10.27;;;;;;;;;;4974411;28;21107;-75
2022/04/29 01:32:24;;;;;;;21.10;9.93;;;;;;;;;;4973046;28;20228;-75
2022/04/29 01:34:54;;;;;;;23.00;10.27;;;;;;;;;;4974394;28;20678;-74
2022/04/29 01:37:22;;;;;;;28.03;10.30;;;;;;;;;;4977231;28;20197;-75
2022/04/29 01:39:51;;;;;;;26.27;9.90;;;;;;;;;;4977704;28;20217;-75
2022/04/29 01:42:18;;;;;;;23.73;10.63;;;;;;;;;;4976061;28;20336;-74
2022/04/29 01:44:46;;;;;;;25.27;10.27;;;;;;;;;;4977120;28;20697;-74
2022/04/29 01:47:13;;;;;;;23.83;10.30;;;;;;;;;;4977805;28;20725;-76
2022/04/29 01:49:40;;;;;;;17.97;9.50;;;;;;;;;;4978180;28;20304;-75
2022/04/29 01:52:08;;;;;;;21.17;10.30;;;;;;;;;;4982644;28;20317;-75
2022/04/29 01:54:36;;;;;;;23.30;10.23;;;;;;;;;;4975240;28;20723;-75
2022/04/29 01:57:04;;;;;;;25.03;10.60;;;;;;;;;;4979341;28;21325;-76
2022/04/29 01:59:32;;;;;;;23.43;10.67;;;;;;;;;;4978847;28;20235;-75
2022/04/29 02:01:59;;;;;;;22.53;10.47;;;;;;;;;;4976890;28;20308;-75
2022/04/29 02:04:27;;;;;;;18.90;10.10;;;;;;;;;;4978007;28;20220;-76
2022/04/29 02:06:54;;;;;;;22.23;10.20;;;;;;;;;;4974567;28;20205;-76
2022/04/29 02:09:21;;;;;;;20.80;10.10;;;;;;;;;;4976508;28;20236;-76
2022/04/29 02:14:31;;;;;;;26.27;10.37;;;;;;;;;;4974409;28;20344;-75
2022/04/29 02:16:58;;;;;;;20.73;9.63;;;;;;;;;;4975911;28;20205;-75
2022/04/29 02:19:27;;;;;;;21.73;9.80;;;;;;;;;;4977727;28;20225;-77
2022/04/29 02:21:54;;;;;;;22.63;10.47;;;;;;;;;;4981127;28;20324;-75
2022/04/29 02:24:21;;;;;;;24.33;10.60;;;;;;;;;;4976551;28;20216;-75
2022/04/29 02:26:48;;;;;;;23.43;10.03;;;;;;;;;;4979025;28;20229;-76
2022/04/29 02:29:15;;;;;;;17.83;9.50;;;;;;;;;;4978972;28;20213;-75
2022/04/29 02:31:44;;;;;;;21.23;9.90;;;;;;;;;;4976378;28;20228;-74
2022/04/29 02:34:11;;;;;;;20.30;9.57;;;;;;;;;;4975211;28;20221;-74
2022/04/29 02:36:40;;;;;;;26.50;9.83;;;;;;;;;;4979119;28;20205;-74
2022/04/29 02:39:07;;;;;;;16.73;8.80;;;;;;;;;;4979896;28;20197;-76
2022/04/29 02:41:35;;;;;;;22.40;8.80;;;;;;;;;;4977958;28;20227;-75
2022/04/29 02:44:02;;;;;;;20.40;9.60;;;;;;;;;;4975470;28;20209;-76
2022/04/29 02:46:29;;;;;;;19.70;9.40;;;;;;;;;;4977601;28;20201;-75
2022/04/29 02:48:58;;;;;;;19.63;8.60;;;;;;;;;;4976847;28;20209;-75
2022/04/29 02:51:25;;;;;;;22.93;9.37;;;;;;;;;;4976414;28;20221;-74
2022/04/29 02:53:52;;;;;;;18.57;9.33;;;;;;;;;;4977304;28;20206;-75
2022/04/29 02:56:19;;;;;;;18.97;9.03;;;;;;;;;;4974169;28;22099;-76
2022/04/29 02:58:46;;;;;;;20.37;8.57;;;;;;;;;;4973929;28;20288;-75
2022/04/29 03:01:14;;;;;;;17.77;9.23;;;;;;;;;;4975980;28;20233;-75
2022/04/29 03:03:41;;;;;;;23.97;8.93;;;;;;;;;;4976041;28;20201;-75
2022/04/29 03:06:09;;;;;;;21.67;8.97;;;;;;;;;;4972960;28;20213;-76
2022/04/29 03:08:36;;;;;;;21.07;9.03;;;;;;;;;;4981695;28;20571;-75
2022/04/29 03:11:03;;;;;;;20.90;9.67;;;;;;;;;;4979816;28;20245;-75
2022/04/29 03:13:31;;;;;;;20.90;9.53;;;;;;;;;;4977187;28;20288;-76
2022/04/29 03:15:58;;;;;;;18.57;8.87;;;;;;;;;;4980449;28;20208;-75
2022/04/29 03:18:26;;;;;;;20.80;8.87;;;;;;;;;;4980520;28;20288;-76
2022/04/29 03:20:56;;;;;;;21.67;8.23;;;;;;;;;;4985102;28;20268;-77
2022/04/29 03:23:25;;;;;;;23.37;9.00;;;;;;;;;;4981046;28;20217;-76
2022/04/29 03:25:52;;;;;;;16.37;8.10;;;;;;;;;;4980502;28;20221;-76
2022/04/29 03:28:20;;;;;;;18.90;8.73;;;;;;;;;;4977419;28;20201;-77
2022/04/29 03:30:47;;;;;;;22.27;9.13;;;;;;;;;;4980099;28;20190;-75
2022/04/29 03:33:15;;;;;;;18.80;8.43;;;;;;;;;;4977528;28;20618;-74
2022/04/29 03:35:42;;;;;;;17.17;9.13;;;;;;;;;;4981306;28;20213;-75
2022/04/29 03:38:09;;;;;;;21.53;9.20;;;;;;;;;;4979724;28;22186;-75
2022/04/29 03:40:38;;;;;;;22.47;9.73;;;;;;;;;;4977832;28;20222;-75
2022/04/29 03:43:06;;;;;;;17.43;8.60;;;;;;;;;;4977441;28;20576;-77
2022/04/29 03:45:33;;;;;;;21.73;10.03;;;;;;;;;;4980598;28;20201;-76
2022/04/29 03:48:00;;;;;;;22.83;9.13;;;;;;;;;;4988054;28;20236;-74
2022/04/29 03:50:29;;;;;;;22.97;9.70;;;;;;;;;;4975206;28;20225;-75
2022/04/29 03:52:59;;;;;;;21.57;9.47;;;;;;;;;;4981810;28;20236;-75
2022/04/29 03:55:26;;;;;;;21.20;8.73;;;;;;;;;;4982740;28;20201;-76
2022/04/29 03:57:55;;;;;;;22.10;8.73;;;;;;;;;;4978110;28;20280;-76
2022/04/29 04:00:23;;;;;;;20.47;9.07;;;;;;;;;;4980329;28;20224;-76
2022/04/29 04:02:50;;;;;;;24.43;9.20;;;;;;;;;;4981191;28;20275;-75
2022/04/29 04:05:18;;;;;;;23.20;9.43;;;;;;;;;;4981778;28;20479;-75
2022/04/29 04:07:45;;;;;;;23.83;9.20;;;;;;;;;;4979171;28;20212;-75
2022/04/29 04:10:13;;;;;;;19.03;9.57;;;;;;;;;;4982540;28;20206;-77
2022/04/29 04:12:41;;;;;;;20.23;9.03;;;;;;;;;;4979189;28;20234;-74
2022/04/29 04:15:11;;;;;;;22.20;9.77;;;;;;;;;;4980407;28;20220;-75
2022/04/29 04:17:38;;;;;;;20.47;8.63;;;;;;;;;;4978254;28;20236;-75
2022/04/29 04:20:06;;;;;;;21.77;8.80;;;;;;;;;;4979648;28;20227;-75
2022/04/29 04:22:35;;;;;;;23.40;9.43;;;;;;;;;;4979657;28;20532;-75
2022/04/29 04:25:02;;;;;;;20.87;9.40;;;;;;;;;;4977046;28;20251;-76
2022/04/29 04:27:30;;;;;;;21.90;9.20;;;;;;;;;;4981139;28;20636;-76
2022/04/29 04:29:57;;;;;;;21.20;9.20;;;;;;;;;;4978034;28;20205;-75
2022/04/29 04:32:25;;;;;;;17.87;8.50;;;;;;;;;;4979920;28;20221;-75
2022/04/29 04:34:54;;;;;;;20.97;8.37;;;;;;;;;;4976264;28;20216;-75
2022/04/29 04:37:21;;;;;;;33.27;9.27;;;;;;;;;;4977766;28;20525;-75
2022/04/29 04:39:49;;;;;;;17.73;8.60;;;;;;;;;;4978403;28;20202;-75
2022/04/29 04:42:16;;;;;;;23.13;8.57;;;;;;;;;;4979885;28;20707;-76
2022/04/29 04:44:43;;;;;;;21.30;8.20;;;;;;;;;;4978832;28;20202;-75
2022/04/29 04:47:10;;;;;;;17.30;8.17;;;;;;;;;;4980010;28;20377;-75
2022/04/29 04:49:39;;;;;;;16.23;8.60;;;;;;;;;;4984841;28;20208;-77
2022/04/29 04:52:06;;;;;;;14.80;8.13;;;;;;;;;;4979565;28;20883;-76
2022/04/29 04:54:34;;;;;;;18.13;8.03;;;;;;;;;;4979499;28;20213;-77
2022/04/29 04:57:01;;;;;;;16.03;7.97;;;;;;;;;;4977503;28;21458;-77
2022/04/29 04:59:28;;;;;;;13.43;7.03;;;;;;;;;;4979511;28;20205;-75
2022/04/29 05:01:55;;;;;;;14.07;7.50;;;;;;;;;;4978496;28;20690;-75
2022/04/29 05:04:22;;;;;;;19.60;8.27;;;;;;;;;;4982069;28;20754;-75
2022/04/29 05:06:51;;;;;;;13.67;7.93;;;;;;;;;;4978579;28;20263;-75
2022/04/29 05:09:19;;;;;;;13.40;7.50;;;;;;;;;;4979429;28;20215;-75
2022/04/29 05:11:46;;;;;;;16.47;7.13;;;;;;;;;;4980191;28;20311;-74
2022/04/29 05:14:13;;;;;;;12.13;7.10;;;;;;;;;;4981257;28;20301;-75
2022/04/29 05:16:40;;;;;;;23.23;7.40;;;;;;;;;;4977282;28;20197;-76
2022/04/29 05:19:07;;;;;;;15.43;7.60;;;;;;;;;;4987073;28;20723;-75
2022/04/29 05:21:34;;;;;;;20.10;8.00;;;;;;;;;;4977582;28;20710;-75
2022/04/29 05:24:03;;;;;;;18.17;7.90;;;;;;;;;;4976486;28;20793;-74
2022/04/29 05:26:30;;;;;;;17.27;6.93;;;;;;;;;;4981702;28;20206;-75
2022/04/29 05:28:57;;;;;;;17.07;7.13;;;;;;;;;;4979850;28;20206;-74
2022/04/29 05:31:24;;;;;;;19.50;7.20;;;;;;;;;;4981682;28;20221;-76
2022/04/29 05:33:52;;;;;;;22.17;8.93;;;;;;;;;;4977164;28;20204;-75
2022/04/29 05:36:19;;;;;;;15.63;7.57;;;;;;;;;;4976755;28;20339;-75
2022/04/29 05:44:18;;;;;;;16.10;7.43;;;;;;;;;;4977735;28;20892;-75
2022/04/29 05:46:45;;;;;;;18.97;8.20;;;;;;;;;;4976727;28;20207;-74
2022/04/29 05:49:12;;;;;;;16.70;7.53;;;;;;;;;;4974523;28;20209;-74
2022/04/29 05:51:40;;;;;;;22.50;8.33;;;;;;;;;;4966560;28;20602;-74
2022/04/29 05:54:07;;;;;;;18.23;8.23;;;;;;;;;;4973664;28;20209;-75
2022/04/29 05:56:35;;;;;;;23.83;8.53;;;;;;;;;;4973983;28;20201;-75
2022/04/29 05:59:03;;;;;;;15.50;8.47;;;;;;;;;;4976234;28;20201;-74
2022/04/29 06:01:30;;;;;;;21.77;8.60;;;;;;;;;;4977159;28;20316;-74
2022/04/29 06:03:57;;;;;;;21.27;7.67;;;;;;;;;;4977654;28;20219;-75
2022/04/29 06:06:24;;;;;;;17.17;8.10;;;;;;;;;;4982892;28;20287;-74
2022/04/29 06:08:51;;;;;;;18.20;8.73;;;;;;;;;;4978403;28;20316;-75
2022/04/29 06:11:18;;;;;;;14.93;8.20;;;;;;;;;;4978305;28;20244;-74
2022/04/29 06:13:48;;;;;;;18.87;8.43;;;;;;;;;;4980799;28;20206;-75
2022/04/29 06:16:17;;;;;;;19.27;8.43;;;;;;;;;;4976822;28;20210;-74
2022/04/29 06:18:44;;;;;;;22.00;9.43;;;;;;;;;;4974153;28;20205;-75
2022/04/29 06:21:11;;;;;;;20.30;8.47;;;;;;;;;;4975463;28;20229;-75
2022/04/29 06:23:38;;;;;;;17.40;8.27;;;;;;;;;;4980032;28;20218;-75
2022/04/29 06:26:05;;;;;;;21.63;9.73;;;;;;;;;;4974318;28;20217;-76
2022/04/29 06:28:33;;;;;;;22.80;8.33;;;;;;;;;;4978592;28;20213;-75
2022/04/29 06:31:02;;;;;;;17.80;7.97;;;;;;;;;;4977652;28;20302;-76
2022/04/29 06:33:30;;;;;;;14.90;7.73;;;;;;;;;;4979611;28;20209;-75
2022/04/29 06:35:57;;;;;;;14.10;7.40;;;;;;;;;;4977087;28;20213;-76
2022/04/29 06:38:24;;;;;;;12.80;7.47;;;;;;;;;;4974899;28;20208;-77
2022/04/29 06:40:52;;;;;;;19.07;7.60;;;;;;;;;;4979990;28;20272;-75
2022/04/29 06:43:19;;;;;;;16.20;7.70;;;;;;;;;;4978525;28;20212;-76
2022/04/29 06:45:47;;;;;;;16.70;7.27;;;;;;;;;;4983710;28;20211;-75
2022/04/29 06:48:15;;;;;;;19.50;7.60;;;;;;;;;;4975694;28;20325;-75
2022/04/29 06:50:43;;;;;;;14.53;7.60;;;;;;;;;;4969667;28;20213;-76
2022/04/29 06:53:10;;;;;;;15.97;7.43;;;;;;;;;;4979534;28;20300;-75
2022/04/29 06:55:38;;;;;;;20.80;6.83;;;;;;;;;;4977456;28;20209;-75
2022/04/29 06:58:05;;;;;;;9.67;6.23;;;;;;;;;;4976877;28;20202;-75
2022/04/29 07:00:32;;;;;;;18.50;7.33;;;;;;;;;;4976426;28;20201;-74
2022/04/29 07:03:02;;;;;;;14.60;6.30;;;;;;;;;;4982894;28;20307;-76
2022/04/29 07:05:32;;;;;;;13.70;6.80;;;;;;;;;;4981894;28;20632;-76
2022/04/29 07:07:59;;;;;;;13.37;6.97;;;;;;;;;;4978501;28;20209;-75
2022/04/29 07:10:26;;;;;;;13.20;6.77;;;;;;;;;;4983916;28;20205;-77
2022/04/29 07:12:53;;;;;;;13.57;6.97;;;;;;;;;;4978648;28;20225;-76
2022/04/29 07:15:21;;;;;;;14.77;7.47;;;;;;;;;;4981759;28;20275;-73
2022/04/29 07:17:49;;;;;;;14.27;7.13;;;;;;;;;;4979289;28;20212;-75
2022/04/29 07:20:18;;;;;;;16.00;7.27;;;;;;;;;;4981704;28;20201;-75
2022/04/29 07:22:46;;;;;;;17.30;7.40;;;;;;;;;;4980542;28;20237;-76
2022/04/29 07:25:15;;;;;;;12.83;6.53;;;;;;;;;;4977787;28;20213;-75
2022/04/29 07:27:42;;;;;;;15.77;7.63;;;;;;;;;;4980770;28;20205;-75
2022/04/29 07:30:11;;;;;;;15.00;6.87;;;;;;;;;;4981501;28;20205;-76
2022/04/29 07:32:39;;;;;;;19.07;8.17;;;;;;;;;;4980827;28;20339;-77
2022/04/29 07:43:22;;;;;;;16.83;6.83;;;;;;;;;;4983304;28;20212;-77
2022/04/29 07:45:51;;;;;;;16.30;7.63;;;;;;;;;;4980127;28;20636;-76
2022/04/29 07:48:18;;;;;;;18.00;7.17;;;;;;;;;;4979287;28;20220;-75
2022/04/29 07:50:46;;;;;;;13.93;6.77;;;;;;;;;;4982860;28;20256;-76
2022/04/29 07:53:14;;;;;;;15.13;6.97;;;;;;;;;;4979613;28;20213;-76
2022/04/29 07:55:42;;;;;;;20.20;7.40;;;;;;;;;;4979333;28;20209;-78
2022/04/29 07:58:10;;;;;;;16.87;7.33;;;;;;;;;;4982475;28;20206;-77
2022/04/29 08:00:38;;;;;;;15.47;7.47;;;;;;;;;;4980193;28;20656;-77
2022/04/29 08:03:05;;;;;;;18.13;7.37;;;;;;;;;;4983867;28;20381;-77
2022/04/29 08:05:33;;;;;;;15.83;7.20;;;;;;;;;;4982293;28;20219;-76
2022/04/29 08:08:00;;;;;;;18.57;7.37;;;;;;;;;;4981319;28;20667;-76
2022/04/29 08:10:29;;;;;;;16.70;7.27;;;;;;;;;;4973532;28;20215;-76
2022/04/29 08:12:57;;;;;;;14.00;6.93;;;;;;;;;;4974817;28;20363;-76
2022/04/29 08:15:24;;;;;;;14.47;7.00;;;;;;;;;;4979443;28;20202;-78
2022/04/29 08:17:52;;;;;;;11.97;6.73;;;;;;;;;;4979574;28;20212;-78
2022/04/29 08:20:19;;;;;;;14.30;6.97;;;;;;;;;;4969780;28;20224;-77
2022/04/29 08:22:46;;;;;;;12.90;6.63;;;;;;;;;;4977341;28;20247;-78
2022/04/29 08:25:15;;;;;;;14.63;7.23;;;;;;;;;;4977256;28;20320;-77
2022/04/29 08:27:44;;;;;;;14.67;6.90;;;;;;;;;;4975149;28;20239;-77
2022/04/29 08:30:11;;;;;;;16.93;7.17;;;;;;;;;;4977163;28;20273;-76
2022/04/29 08:32:39;;;;;;;16.27;6.90;;;;;;;;;;4976690;28;20705;-76
2022/04/29 08:35:09;;;;;;;16.73;6.70;;;;;;;;;;4972967;28;20202;-75
2022/04/29 08:37:36;;;;;;;18.97;7.70;;;;;;;;;;4975803;28;20293;-76
2022/04/29 08:40:04;;;;;;;17.40;6.80;;;;;;;;;;4978596;28;20228;-75
2022/04/29 08:42:36;;;;;;;16.87;6.90;;;;;;;;;;4978093;28;20372;-76
2022/04/29 08:45:06;;;;;;;15.57;7.27;;;;;;;;;;4974475;28;20201;-75
2022/04/29 08:47:35;;;;;;;13.63;6.70;;;;;;;;;;4976021;28;20613;-75
2022/04/29 08:50:03;;;;;;;15.23;7.00;;;;;;;;;;4977866;28;20305;-76
2022/04/29 08:52:30;;;;;;;16.03;7.17;;;;;;;;;;4981342;28;20218;-76
2022/04/29 09:00:31;;;;;;;13.10;7.17;;;;;;;;;;4975406;28;20228;-75
2022/04/29 09:03:00;;;;;;;17.83;7.37;;;;;;;;;;4977160;28;20749;-76
2022/04/29 09:05:27;;;;;;;11.93;6.97;;;;;;;;;;4969686;28;20248;-76
2022/04/29 09:07:55;;;;;;;18.10;7.30;;;;;;;;;;4976484;28;20211;-76
2022/04/29 09:10:23;;;;;;;18.13;7.03;;;;;;;;;;4980792;28;20287;-76
2022/04/29 09:12:50;;;;;;;14.43;7.13;;;;;;;;;;4974196;28;20312;-76
2022/04/29 09:15:18;;;;;;;10.90;6.50;;;;;;;;;;4976927;28;20212;-76
2022/04/29 09:17:47;;;;;;;17.30;7.20;;;;;;;;;;4977506;28;20256;-76
2022/04/29 09:20:16;;;;;;;14.47;7.23;;;;;;;;;;4979139;28;20206;-76
2022/04/29 09:22:46;;;;;;;14.93;6.67;;;;;;;;;;4980113;28;20224;-76
2022/04/29 09:25:13;;;;;;;16.93;7.33;;;;;;;;;;4973703;28;20670;-75
2022/04/29 09:27:56;;;;;;;16.70;7.40;;;;;;;;;;4976945;28;20217;-76
2022/04/29 09:30:33;;;;;;;17.30;6.43;;;;;;;;;;4973844;28;20209;-76
2022/04/29 09:33:01;;;;;;;16.10;6.97;;;;;;;;;;4977452;28;20226;-76
2022/04/29 09:35:39;;;;;;;15.77;6.80;;;;;;;;;;4973079;28;20223;-75
2022/04/29 09:40:51;;;;;;;13.00;6.20;;;;;;;;;;4977403;28;20243;-76
2022/04/29 09:43:18;;;;;;;7.53;5.20;;;;;;;;;;4974305;28;20316;-75
2022/04/29 09:45:45;;;;;;;14.13;6.60;;;;;;;;;;4973584;28;20209;-76
2022/04/29 09:48:14;;;;;;;11.87;6.00;;;;;;;;;;4974582;28;20205;-76
2022/04/29 09:50:48;;;;;;;14.07;6.50;;;;;;;;;;4976110;28;20212;-76
2022/04/29 09:53:20;;;;;;;15.90;6.50;;;;;;;;;;4974741;28;20219;-76
2022/04/29 09:56:05;;;;;;;13.53;6.77;;;;;;;;;;4974194;28;20201;-76
2022/04/29 09:58:33;;;;;;;13.00;6.07;;;;;;;;;;4976069;28;20694;-75
2022/04/29 10:01:01;;;;;;;19.00;6.43;;;;;;;;;;4971650;28;20240;-76
2022/04/29 10:03:30;;;;;;;13.13;6.30;;;;;;;;;;4971314;28;20221;-76
2022/04/29 10:06:00;;;;;;;10.57;5.83;;;;;;;;;;4978554;28;20201;-76
2022/04/29 10:08:28;;;;;;;19.33;6.57;;;;;;;;;;4978273;28;20234;-75
2022/04/29 10:10:55;;;;;;;13.73;6.27;;;;;;;;;;4976873;28;20267;-76
2022/04/29 10:13:24;;;;;;;11.80;5.80;;;;;;;;;;4979643;28;20698;-76
2022/04/29 10:15:52;;;;;;;12.07;6.10;;;;;;;;;;4977366;28;20599;-76
2022/04/29 10:21:18;;;;;;;14.60;5.63;;;;;;;;;;4977200;28;20223;-76
2022/04/29 10:23:48;;;;;;;12.37;5.70;;;;;;;;;;4976761;28;20737;-76
2022/04/29 10:26:17;;;;;;;14.53;6.07;;;;;;;;;;4983961;28;20215;-76
2022/04/29 10:28:45;;;;;;;13.43;6.40;;;;;;;;;;4972773;28;20217;-75
2022/04/29 10:31:18;;;;;;;17.50;6.20;;;;;;;;;;4973135;28;20232;-75
2022/04/29 10:33:45;;;;;;;13.67;6.03;;;;;;;;;;4975802;28;20293;-76
2022/04/29 10:36:15;;;;;;;14.97;6.40;;;;;;;;;;4975044;28;20201;-74
2022/04/29 10:38:46;;;;;;;14.87;6.20;;;;;;;;;;4978319;28;20216;-76
2022/04/29 10:41:17;;;;;;;11.47;5.67;;;;;;;;;;4971604;28;20260;-76
2022/04/29 10:43:48;;;;;;;14.37;6.23;;;;;;;;;;4972826;28;20225;-75
2022/04/29 10:46:21;;;;;;;12.67;6.17;;;;;;;;;;4978644;28;20301;-75
2022/04/29 10:48:48;;;;;;;12.97;6.10;;;;;;;;;;4972669;28;20209;-75
2022/04/29 10:51:18;;;;;;;12.73;5.93;;;;;;;;;;4974068;28;20225;-75
2022/04/29 10:53:46;;;;;;;12.77;5.90;;;;;;;;;;4969287;28;20337;-75
2022/04/29 10:56:31;;;;;;;14.13;6.13;;;;;;;;;;4974486;28;20287;-75
2022/04/29 10:59:12;;;;;;;10.53;4.90;;;;;;;;;;4955326;28;20849;-75
2022/04/29 11:01:40;;;;;;;10.97;5.83;;;;;;;;;;4960269;28;20731;-75
2022/04/29 11:04:08;;;;;;;8.73;5.47;;;;;;;;;;4968352;28;20233;-75
2022/04/29 11:06:41;;;;;;;12.20;5.73;;;;;;;;;;4936232;28;20688;-75
2022/04/29 11:09:23;;;;;;;12.23;5.67;;;;;;;;;;4938413;28;21287;-75
2022/04/29 11:11:51;;;;;;;10.13;5.87;;;;;;;;;;4952829;28;20229;-75
2022/04/29 11:14:18;;;;;;;10.63;5.07;;;;;;;;;;4979221;28;20213;-75
2022/04/29 11:16:49;;;;;;;9.23;5.13;;;;;;;;;;4977107;28;20209;-75
2022/04/29 11:19:21;;;;;;;12.93;5.70;;;;;;;;;;4968247;28;20239;-75
2022/04/29 11:24:44;;;;;;;8.73;5.33;;;;;;;;;;4970941;28;20924;-76
2022/04/29 11:27:12;;;;;;;12.93;5.50;;;;;;;;;;4970768;28;20679;-75
2022/04/29 11:29:43;;;;;;;11.87;5.20;;;;;;;;;;4971482;28;20213;-74
2022/04/29 11:32:10;;;;;;;8.70;5.30;;;;;;;;;;4970375;28;21376;-74
2022/04/29 11:34:51;;;;;;;10.67;5.13;;;;;;;;;;4971612;28;20226;-75
2022/04/29 11:37:24;;;;;;;9.90;5.10;;;;;;;;;;4963844;28;20363;-75
2022/04/29 11:39:52;;;;;;;11.67;5.93;;;;;;;;;;4974875;28;20217;-73
2022/04/29 11:42:20;;;;;;;11.60;5.63;;;;;;;;;;4959923;28;20224;-73
2022/04/29 11:44:49;;;;;;;9.87;4.90;;;;;;;;;;4970697;28;20201;-76
2022/04/29 11:47:17;;;;;;;9.50;4.50;;;;;;;;;;4974950;28;20206;-75
2022/04/29 11:49:44;;;;;;;8.57;4.50;;;;;;;;;;4974898;28;20599;-75
2022/04/29 11:52:21;;;;;;;10.90;5.43;;;;;;;;;;4973026;28;20231;-75
2022/04/29 11:54:53;;;;;;;13.90;5.23;;;;;;;;;;4970821;28;20588;-75
2022/04/29 11:57:20;;;;;;;8.20;5.00;;;;;;;;;;4967331;28;20211;-75
2022/04/29 11:59:48;;;;;;;12.83;4.53;;;;;;;;;;4973365;28;20481;-76
2022/04/29 12:02:17;;;;;;;7.90;4.80;;;;;;;;;;4977972;28;20230;-75
2022/04/29 12:04:54;;;;;;;8.63;4.63;;;;;;;;;;4975368;28;20738;-75
2022/04/29 12:07:21;;;;;;;9.67;4.27;;;;;;;;;;4968209;28;20731;-75
2022/04/29 12:09:48;;;;;;;11.63;5.77;;;;;;;;;;4974040;28;20210;-75
2022/04/29 12:12:27;;;;;;;12.23;5.43;;;;;;;;;;4972910;28;20230;-75
2022/04/29 12:14:55;;;;;;;12.97;5.40;;;;;;;;;;4973791;28;20415;-76
2022/04/29 12:17:32;;;;;;;6.93;4.57;;;;;;;;;;4969675;28;20342;-75
2022/04/29 12:19:59;;;;;;;10.27;4.80;;;;;;;;;;4974442;28;20197;-75
2022/04/29 12:22:29;;;;;;;10.53;4.80;;;;;;;;;;4975160;28;20232;-76
2022/04/29 12:24:57;;;;;;;12.57;5.57;;;;;;;;;;4971845;28;20209;-76
2022/04/29 12:27:36;;;;;;;15.77;5.03;;;;;;;;;;4975531;28;20219;-75
2022/04/29 12:35:32;;;;;;;11.43;5.00;;;;;;;;;;4974066;28;20216;-75
2022/04/29 12:38:00;;;;;;;12.40;5.10;;;;;;;;;;4975518;28;20730;-75
2022/04/29 12:40:28;;;;;;;8.13;4.53;;;;;;;;;;4970389;28;20272;-75
2022/04/29 12:43:10;;;;;;;9.63;4.57;;;;;;;;;;4967080;28;20879;-74
2022/04/29 12:45:39;;;;;;;6.73;4.53;;;;;;;;;;4968649;28;20303;-75
2022/04/29 12:48:08;;;;;;;10.10;4.57;;;;;;;;;;4967151;28;20267;-74
2022/04/29 12:50:37;;;;;;;9.30;4.03;;;;;;;;;;4970278;28;20482;-74
2022/04/29 12:53:04;;;;;;;10.03;4.30;;;;;;;;;;4972081;28;20303;-77
2022/04/29 12:55:32;;;;;;;7.93;4.50;;;;;;;;;;4973110;28;20668;-76
2022/04/29 12:58:03;;;;;;;9.03;4.60;;;;;;;;;;4977426;28;20201;-76
2022/04/29 13:00:30;;;;;;;10.77;4.60;;;;;;;;;;4973531;28;21088;-77
2022/04/29 13:03:03;;;;;;;9.73;4.77;;;;;;;;;;4969006;28;20260;-77
2022/04/29 13:05:30;;;;;;;7.43;4.60;;;;;;;;;;4958828;28;20205;-77
2022/04/29 13:07:57;;;;;;;8.27;4.73;;;;;;;;;;4970265;28;20276;-79
2022/04/29 13:10:25;;;;;;;9.20;4.50;;;;;;;;;;4980473;28;20221;-79
2022/04/29 13:12:54;;;;;;;9.73;5.00;;;;;;;;;;4976400;28;20777;-77
2022/04/29 13:15:21;;;;;;;12.80;5.07;;;;;;;;;;4979576;28;20302;-79
2022/04/29 13:17:48;;;;;;;11.53;4.77;;;;;;;;;;4976393;28;20208;-78
2022/04/29 13:20:17;;;;;;;8.03;4.97;;;;;;;;;;4980317;28;20232;-80
2022/04/29 13:22:44;;;;;;;8.17;4.40;;;;;;;;;;4999922;22;20651;-79
2022/04/29 13:25:11;;;;;;;7.60;4.57;;;;;;;;;;5002718;28;20235;-79
2022/04/29 13:27:38;;;;;;;8.17;4.47;;;;;;;;;;5005036;28;20231;-79
2022/04/29 13:30:06;;;;;;;7.10;4.40;;;;;;;;;;5008361;28;20207;-79
2022/04/29 13:32:34;;;;;;;9.07;4.83;;;;;;;;;;4996788;28;20227;-78
2022/04/29 13:35:01;;;;;;;10.43;4.50;;;;;;;;;;4980978;28;21178;-80
2022/04/29 13:37:32;;;;;;;9.97;4.87;;;;;;;;;;4984994;28;20208;-78
2022/04/29 13:40:00;;;;;;;9.17;4.63;;;;;;;;;;4984638;28;20201;-78
2022/04/29 13:42:29;;;;;;;8.47;4.80;;;;;;;;;;4984684;28;20310;-78
2022/04/29 13:44:56;;;;;;;8.93;5.20;;;;;;;;;;4987423;28;20214;-79
2022/04/29 13:47:25;;;;;;;9.90;4.50;;;;;;;;;;4988465;28;20211;-80
2022/04/29 13:49:52;;;;;;;8.27;4.70;;;;;;;;;;4980972;28;20213;-80
2022/04/29 13:55:09;;;;;;;7.57;4.40;;;;;;;;;;4976461;28;20209;-78
2022/04/29 13:57:36;;;;;;;8.67;4.23;;;;;;;;;;4982004;28;20687;-79
2022/04/29 14:00:10;;;;;;;8.87;4.87;;;;;;;;;;4978162;28;20224;-78
2022/04/29 14:02:38;;;;;;;6.50;4.40;;;;;;;;;;4980855;28;20706;-79
2022/04/29 14:05:09;;;;;;;6.70;4.60;;;;;;;;;;4980581;28;20212;-79
2022/04/29 14:07:39;;;;;;;7.33;4.53;;;;;;;;;;4981864;28;20198;-79
2022/04/29 14:10:09;;;;;;;8.07;4.80;;;;;;;;;;4981215;28;20216;-78
2022/04/29 14:12:36;;;;;;;6.07;4.10;;;;;;;;;;4982864;28;20312;-80
2022/04/29 14:15:03;;;;;;;9.37;4.40;;;;;;;;;;4986484;28;20215;-78
2022/04/29 14:17:31;;;;;;;7.40;4.20;;;;;;;;;;4980427;28;20201;-79
2022/04/29 14:20:00;;;;;;;8.47;4.40;;;;;;;;;;4989874;28;20271;-78
2022/04/29 14:22:27;;;;;;;7.30;4.37;;;;;;;;;;4988777;28;20240;-79
2022/04/29 14:24:54;;;;;;;10.80;4.87;;;;;;;;;;4983096;28;20223;-79
2022/04/29 14:27:24;;;;;;;8.67;4.30;;;;;;;;;;4985064;28;20240;-79
2022/04/29 14:29:51;;;;;;;6.73;4.33;;;;;;;;;;4983831;28;20219;-79
2022/04/29 14:32:21;;;;;;;8.40;4.87;;;;;;;;;;4986369;28;20230;-79
2022/04/29 14:34:49;;;;;;;9.57;5.13;;;;;;;;;;4986837;28;20288;-79
2022/04/29 14:37:19;;;;;;;9.53;4.43;;;;;;;;;;4985617;28;20213;-79
2022/04/29 14:39:48;;;;;;;8.17;4.80;;;;;;;;;;4989498;28;20217;-79
2022/04/29 14:42:15;;;;;;;10.90;4.17;;;;;;;;;;4993406;28;20708;-79
2022/04/29 14:44:44;;;;;;;8.93;4.50;;;;;;;;;;4985515;28;20316;-79
2022/04/29 14:47:11;;;;;;;9.90;4.30;;;;;;;;;;4990514;28;20216;-79
2022/04/29 14:49:38;;;;;;;6.37;3.80;;;;;;;;;;4986679;28;20209;-79
2022/04/29 14:52:07;;;;;;;7.23;3.93;;;;;;;;;;4991756;28;20699;-79
2022/04/29 14:54:36;;;;;;;9.27;3.87;;;;;;;;;;4984638;28;20225;-78
2022/04/29 14:57:04;;;;;;;10.60;4.63;;;;;;;;;;4984426;28;20208;-80
2022/04/29 14:59:31;;;;;;;8.27;4.00;;;;;;;;;;4989657;28;20251;-82
2022/04/29 15:01:59;;;;;;;5.73;3.73;;;;;;;;;;4980764;28;20744;-80
2022/04/29 15:04:27;;;;;;;11.53;4.20;;;;;;;;;;4989391;28;20307;-79
2022/04/29 15:06:55;;;;;;;7.13;4.13;;;;;;;;;;4987348;28;20205;-80
2022/04/29 15:17:38;;;;;;;10.37;5.50;;;;;;;;;;4988886;28;20262;-82
2022/04/29 15:20:06;;;;;;;9.03;5.73;;;;;;;;;;4983491;28;20225;-80
2022/04/29 15:22:33;;;;;;;13.93;5.97;;;;;;;;;;4986399;28;20244;-80
2022/04/29 15:25:00;;;;;;;11.90;5.33;;;;;;;;;;4990187;28;20231;-79